Time;durP1;ratioP1;P1;durP2;ratioP2;P2;SDS_P1;SDS_P2;PMS_P1;PMS_P2;Temp;Humidity;BMP_temperature;BMP_pressure;BME280_temperature;BME280_humidity;BME280_pressure;Samples;Min_cycle;Max_cycle;Signal;HPM_P1;HPM_P2
2022/03/17 00:00:47;;;;;;;24.63;21.93;;;11.30;99.90;;;;;;5011325;28;20212;-66
2022/03/17 00:03:13;;;;;;;25.40;22.70;;;11.40;99.90;;;;;;5011857;28;20187;-65
2022/03/17 00:05:38;;;;;;;27.27;22.80;;;11.40;99.90;;;;;;5010701;28;20203;-65
2022/03/17 00:08:04;;;;;;;24.57;21.67;;;11.40;99.90;;;;;;5011748;28;20179;-65
2022/03/17 00:10:30;;;;;;;28.40;22.30;;;11.40;99.90;;;;;;5010957;28;20200;-67
2022/03/17 00:12:55;;;;;;;27.27;21.63;;;11.30;99.90;;;;;;5011507;28;20544;-67
2022/03/17 00:15:21;;;;;;;26.83;23.03;;;11.30;99.90;;;;;;5010892;28;20184;-66
2022/03/17 00:17:47;;;;;;;26.60;21.70;;;11.30;99.90;;;;;;5011723;28;20602;-66
2022/03/17 00:20:14;;;;;;;28.07;23.10;;;11.30;99.90;;;;;;5011398;28;20658;-65
2022/03/17 00:22:41;;;;;;;29.17;22.43;;;11.30;99.90;;;;;;5011702;28;20666;-64
2022/03/17 00:25:08;;;;;;;28.63;23.93;;;11.30;99.90;;;;;;5010665;28;20198;-63
2022/03/17 00:27:34;;;;;;;28.13;22.80;;;11.30;99.90;;;;;;5011286;28;20211;-66
2022/03/17 00:30:00;;;;;;;26.70;23.23;;;11.30;99.90;;;;;;5014732;28;20208;-66
2022/03/17 00:32:26;;;;;;;25.20;22.50;;;11.30;99.90;;;;;;5015003;28;20195;-66
2022/03/17 00:37:36;;;;;;;28.20;23.07;;;11.30;99.90;;;;;;5015361;28;20567;-65
2022/03/17 00:40:03;;;;;;;29.10;22.30;;;11.20;99.90;;;;;;5014877;28;20196;-64
2022/03/17 00:42:29;;;;;;;28.40;23.60;;;11.20;99.90;;;;;;5014838;28;20235;-64
2022/03/17 00:44:54;;;;;;;27.20;23.03;;;11.20;99.90;;;;;;5015409;28;20181;-64
2022/03/17 00:47:24;;;;;;;24.97;21.50;;;11.20;99.90;;;;;;5014558;28;20554;-64
2022/03/17 00:49:49;;;;;;;27.83;23.07;;;11.10;99.90;;;;;;5014753;28;20219;-66
2022/03/17 00:52:16;;;;;;;27.10;22.27;;;11.10;99.90;;;;;;5014280;28;20176;-64
2022/03/17 00:54:42;;;;;;;27.53;22.80;;;11.10;99.90;;;;;;5028927;28;20548;-65
2022/03/17 00:57:12;;;;;;;27.17;22.10;;;11.10;99.90;;;;;;5014049;28;20191;-65
2022/03/17 00:59:38;;;;;;;25.17;21.27;;;11.00;99.90;;;;;;5014333;28;20196;-65
2022/03/17 01:02:05;;;;;;;29.00;23.27;;;11.00;99.90;;;;;;5014311;28;20211;-65
2022/03/17 01:04:31;;;;;;;24.20;20.50;;;11.00;99.90;;;;;;5013348;28;20180;-67
2022/03/17 01:06:57;;;;;;;26.07;21.87;;;11.00;99.90;;;;;;5014968;28;20713;-66
2022/03/17 01:09:22;;;;;;;27.80;21.83;;;11.00;99.90;;;;;;5014230;28;20239;-65
2022/03/17 01:11:48;;;;;;;26.77;21.87;;;11.00;99.90;;;;;;5014686;28;20176;-66
2022/03/17 01:14:14;;;;;;;24.60;21.60;;;11.00;99.90;;;;;;5014038;28;20226;-64
2022/03/17 01:16:40;;;;;;;26.07;22.30;;;11.00;99.90;;;;;;5014325;28;20238;-66
2022/03/17 01:19:06;;;;;;;26.00;23.20;;;11.00;99.90;;;;;;5014219;28;20231;-67
2022/03/17 01:21:32;;;;;;;29.27;22.27;;;11.00;99.90;;;;;;5014683;28;20198;-65
2022/03/17 01:23:58;;;;;;;25.37;22.60;;;11.00;99.90;;;;;;5013746;28;20254;-65
2022/03/17 01:26:24;;;;;;;26.23;22.13;;;11.00;99.90;;;;;;5013694;28;20228;-64
2022/03/17 01:28:50;;;;;;;25.60;22.80;;;11.00;99.90;;;;;;5013732;28;20188;-65
2022/03/17 01:31:16;;;;;;;24.53;21.90;;;11.00;99.90;;;;;;5013966;28;20271;-64
2022/03/17 01:33:41;;;;;;;30.33;22.20;;;11.00;99.90;;;;;;5013836;28;20251;-65
2022/03/17 01:36:07;;;;;;;25.67;20.50;;;11.00;99.90;;;;;;5013605;28;20180;-65
2022/03/17 01:38:33;;;;;;;28.07;22.17;;;11.00;99.90;;;;;;5013518;28;20311;-67
2022/03/17 01:40:59;;;;;;;26.50;22.03;;;11.00;99.90;;;;;;5013159;28;20219;-66
2022/03/17 01:43:25;;;;;;;26.03;21.87;;;11.10;99.90;;;;;;5013540;28;20180;-66
2022/03/17 01:45:53;;;;;;;24.67;21.53;;;11.10;99.90;;;;;;5013185;28;20199;-64
2022/03/17 01:48:22;;;;;;;28.30;22.33;;;11.00;99.90;;;;;;5013968;28;20636;-65
2022/03/17 01:50:51;;;;;;;26.23;22.27;;;11.00;99.90;;;;;;5013118;28;20204;-64
2022/03/17 01:53:18;;;;;;;27.50;22.23;;;11.00;99.90;;;;;;4994388;28;20169;-65
2022/03/17 01:55:43;;;;;;;25.13;21.43;;;11.00;99.90;;;;;;4994586;28;20173;-65
2022/03/17 01:58:10;;;;;;;29.67;23.27;;;11.00;99.90;;;;;;5012582;28;20188;-66
2022/03/17 02:00:37;;;;;;;28.13;21.80;;;11.00;99.90;;;;;;5013177;28;20203;-65
2022/03/17 02:03:03;;;;;;;31.17;23.00;;;11.00;99.90;;;;;;5013628;28;20607;-65
2022/03/17 02:05:29;;;;;;;25.77;22.37;;;11.00;99.90;;;;;;5013053;28;20271;-65
2022/03/17 02:07:54;;;;;;;26.03;22.17;;;11.00;99.90;;;;;;5013142;28;20188;-65
2022/03/17 02:10:22;;;;;;;24.90;21.13;;;11.00;99.90;;;;;;5013169;28;20204;-65
2022/03/17 02:15:33;;;;;;;25.80;22.87;;;11.00;99.90;;;;;;5013071;28;20563;-65
2022/03/17 02:18:08;;;;;;;26.67;22.93;;;11.00;99.90;;;;;;5013212;28;20247;-65
2022/03/17 02:20:34;;;;;;;25.60;22.87;;;11.00;99.90;;;;;;5013069;28;20191;-64
2022/03/17 02:26:01;;;;;;;25.77;21.33;;;10.90;99.90;;;;;;4993169;28;20267;-64
2022/03/17 02:28:28;;;;;;;27.53;22.50;;;10.90;99.90;;;;;;4996644;28;21405;-64
2022/03/17 02:30:54;;;;;;;27.00;22.53;;;10.90;99.90;;;;;;5012925;28;20211;-64
2022/03/17 02:33:20;;;;;;;26.87;22.23;;;11.00;99.90;;;;;;5012765;28;20534;-65
2022/03/17 02:35:48;;;;;;;25.90;22.27;;;11.00;99.90;;;;;;5012669;28;20255;-65
2022/03/17 02:38:15;;;;;;;26.40;22.73;;;11.00;99.90;;;;;;5012908;28;20172;-65
2022/03/17 02:40:44;;;;;;;26.23;21.27;;;10.90;99.90;;;;;;4993416;28;20575;-65
2022/03/17 02:43:11;;;;;;;25.37;21.30;;;11.00;99.90;;;;;;5008569;28;20245;-66
2022/03/17 02:45:37;;;;;;;25.37;21.97;;;10.90;99.90;;;;;;5012673;28;20683;-66
2022/03/17 02:48:04;;;;;;;27.47;22.50;;;10.90;99.90;;;;;;5011998;28;20352;-66
2022/03/17 02:50:29;;;;;;;39.83;23.50;;;11.00;99.90;;;;;;5011892;28;20661;-66
2022/03/17 02:52:55;;;;;;;26.93;22.93;;;11.00;99.90;;;;;;5012311;28;20254;-66
2022/03/17 02:55:21;;;;;;;29.67;23.27;;;11.00;99.90;;;;;;5012129;28;20172;-65
2022/03/17 02:57:46;;;;;;;29.67;23.37;;;11.00;99.90;;;;;;5012305;28;20262;-65
2022/03/17 03:00:14;;;;;;;30.97;23.97;;;11.00;99.90;;;;;;5012653;28;20674;-66
2022/03/17 03:02:41;;;;;;;28.93;24.10;;;11.00;99.90;;;;;;5012323;28;20322;-66
2022/03/17 03:05:07;;;;;;;30.03;24.87;;;11.00;99.90;;;;;;5012413;28;20172;-63
2022/03/17 03:07:34;;;;;;;29.70;23.30;;;11.00;99.90;;;;;;5012061;28;20191;-66
2022/03/17 03:10:00;;;;;;;29.60;23.07;;;11.00;99.90;;;;;;5011826;28;20212;-66
2022/03/17 03:12:26;;;;;;;29.30;24.67;;;11.00;99.90;;;;;;5011558;28;20216;-65
2022/03/17 03:14:51;;;;;;;28.23;23.50;;;11.00;99.90;;;;;;5012131;28;20168;-64
2022/03/17 03:17:18;;;;;;;26.63;22.97;;;11.00;99.90;;;;;;5011794;28;20176;-65
2022/03/17 03:19:43;;;;;;;28.20;23.93;;;11.00;99.90;;;;;;5012043;28;20184;-64
2022/03/17 03:22:09;;;;;;;27.10;24.00;;;10.90;99.90;;;;;;5011943;28;20242;-66
2022/03/17 03:24:36;;;;;;;32.03;24.00;;;11.00;99.90;;;;;;5011662;28;20176;-65
2022/03/17 03:27:02;;;;;;;28.37;23.10;;;10.90;99.90;;;;;;5012416;28;20172;-63
2022/03/17 03:29:28;;;;;;;28.03;23.33;;;11.00;99.90;;;;;;5010594;28;20640;-63
2022/03/17 03:31:57;;;;;;;30.20;25.20;;;11.00;99.90;;;;;;5012161;28;20539;-64
2022/03/17 03:34:23;;;;;;;27.77;23.53;;;11.00;99.90;;;;;;5011731;28;20271;-64
2022/03/17 03:39:34;;;;;;;28.93;24.77;;;11.00;99.90;;;;;;5011871;28;20218;-63
2022/03/17 03:42:01;;;;;;;30.77;25.07;;;10.90;99.90;;;;;;5012090;28;20207;-64
2022/03/17 03:44:27;;;;;;;28.50;24.53;;;11.00;99.90;;;;;;5011419;28;20242;-65
2022/03/17 03:46:53;;;;;;;32.37;25.37;;;11.00;99.90;;;;;;5011350;28;20246;-64
2022/03/17 03:49:19;;;;;;;33.97;26.13;;;11.00;99.90;;;;;;5011395;28;20291;-64
2022/03/17 03:51:45;;;;;;;33.40;26.67;;;11.00;99.90;;;;;;5070869;22;20235;-67
2022/03/17 03:54:17;;;;;;;33.87;27.93;;;11.00;99.90;;;;;;5050850;28;20261;-66
2022/03/17 03:56:47;;;;;;;32.30;27.47;;;11.00;99.90;;;;;;5022571;28;20186;-67
2022/03/17 03:59:21;;;;;;;36.83;28.33;;;11.00;99.90;;;;;;5030330;28;20729;-65
2022/03/17 04:01:58;;;;;;;33.53;26.73;;;11.10;99.90;;;;;;5016603;28;20225;-65
2022/03/17 04:04:25;;;;;;;38.63;29.63;;;11.00;99.90;;;;;;5037712;28;20175;-65
2022/03/17 04:06:54;;;;;;;37.87;29.17;;;11.00;99.90;;;;;;5026951;28;20190;-64
2022/03/17 04:09:25;;;;;;;36.40;29.53;;;10.90;99.90;;;;;;5019905;28;20630;-65
2022/03/17 04:11:52;;;;;;;39.03;29.87;;;10.90;99.90;;;;;;5030740;28;20204;-66
2022/03/17 04:14:18;;;;;;;36.60;29.20;;;10.90;99.90;;;;;;5057644;28;20171;-65
2022/03/17 04:16:44;;;;;;;38.37;30.80;;;10.90;99.90;;;;;;5056998;28;20175;-65
2022/03/17 04:19:10;;;;;;;39.87;30.37;;;10.80;99.90;;;;;;5057282;28;20239;-65
2022/03/17 04:21:36;;;;;;;39.23;29.77;;;10.80;99.90;;;;;;5050764;28;20922;-65
2022/03/17 04:24:02;;;;;;;38.77;30.47;;;10.80;99.90;;;;;;5037550;28;20646;-65
2022/03/17 04:26:28;;;;;;;39.40;30.23;;;10.80;99.90;;;;;;5042743;28;20194;-65
2022/03/17 04:28:54;;;;;;;40.37;31.10;;;10.80;99.90;;;;;;5057444;28;20162;-66
2022/03/17 04:31:20;;;;;;;36.10;29.27;;;10.70;99.90;;;;;;5054600;28;20197;-66
2022/03/17 04:33:47;;;;;;;43.33;32.63;;;10.70;99.90;;;;;;5037758;28;20171;-66
2022/03/17 04:36:13;;;;;;;40.83;32.43;;;10.50;99.90;;;;;;5021557;28;20522;-66
2022/03/17 04:38:39;;;;;;;43.80;33.17;;;10.40;99.90;;;;;;5039314;28;20220;-66
2022/03/17 04:41:05;;;;;;;41.87;33.70;;;10.40;99.90;;;;;;5056448;28;20700;-66
2022/03/17 04:43:30;;;;;;;39.53;30.97;;;10.40;99.90;;;;;;5056337;28;20171;-66
2022/03/17 04:45:56;;;;;;;43.67;31.63;;;10.40;99.90;;;;;;5056895;28;20166;-66
2022/03/17 04:48:22;;;;;;;46.13;33.07;;;10.30;99.90;;;;;;5035276;28;20175;-66
2022/03/17 04:50:47;;;;;;;44.33;33.83;;;10.30;99.90;;;;;;5037092;28;20207;-66
2022/03/17 04:53:29;;;;;;;42.87;32.27;;;10.30;99.90;;;;;;5052872;28;20194;-66
2022/03/17 04:55:57;;;;;;;48.13;33.87;;;10.20;99.90;;;;;;5038906;28;20595;-66
2022/03/17 04:58:22;;;;;;;44.23;32.10;;;10.10;99.90;;;;;;5039553;28;20217;-66
2022/03/17 05:00:48;;;;;;;45.80;33.57;;;10.10;99.90;;;;;;5047742;28;20199;-66
2022/03/17 05:03:14;;;;;;;44.43;33.23;;;10.10;99.90;;;;;;5057445;28;20273;-66
2022/03/17 05:05:40;;;;;;;46.03;31.83;;;10.10;99.90;;;;;;5030385;28;20207;-66
2022/03/17 05:08:06;;;;;;;47.07;33.50;;;10.10;99.90;;;;;;5036905;28;20203;-66
2022/03/17 05:10:35;;;;;;;47.67;34.60;;;10.10;99.90;;;;;;5042842;28;20206;-66
2022/03/17 05:13:05;;;;;;;45.40;33.80;;;10.10;99.90;;;;;;5055023;28;20163;-66
2022/03/17 05:15:30;;;;;;;49.77;35.53;;;10.10;99.90;;;;;;5051894;28;20533;-67
2022/03/17 05:17:56;;;;;;;48.60;33.20;;;10.10;99.90;;;;;;5054278;28;20175;-67
2022/03/17 05:20:22;;;;;;;49.07;33.17;;;10.10;99.90;;;;;;5048703;28;20210;-67
2022/03/17 05:22:48;;;;;;;52.07;35.33;;;10.10;99.90;;;;;;5033732;28;20516;-67
2022/03/17 05:25:14;;;;;;;49.37;33.27;;;10.10;99.90;;;;;;5018571;28;20182;-67
2022/03/17 05:27:41;;;;;;;55.10;35.60;;;10.10;99.90;;;;;;5053474;28;20170;-67
2022/03/17 05:30:09;;;;;;;50.03;34.57;;;10.10;99.90;;;;;;5049643;28;20242;-67
2022/03/17 05:32:35;;;;;;;42.23;31.20;;;10.20;99.90;;;;;;5053724;28;20170;-67
2022/03/17 05:35:01;;;;;;;48.00;33.03;;;10.20;99.90;;;;;;5032093;28;20179;-67
2022/03/17 05:37:27;;;;;;;53.93;33.77;;;10.30;99.90;;;;;;5033180;28;20229;-67
2022/03/17 05:39:52;;;;;;;52.27;34.23;;;10.30;99.90;;;;;;5017378;28;20172;-67
2022/03/17 05:42:18;;;;;;;48.73;34.43;;;10.40;99.90;;;;;;5053593;28;20305;-67
2022/03/17 05:44:44;;;;;;;38.70;27.37;;;10.40;99.90;;;;;;5053235;28;20178;-66
2022/03/17 05:47:10;;;;;;;44.57;28.47;;;10.30;99.90;;;;;;5033718;28;20172;-66
2022/03/17 05:49:35;;;;;;;44.50;28.43;;;10.10;99.90;;;;;;5033341;28;20191;-66
2022/03/17 05:52:01;;;;;;;34.07;25.43;;;10.10;99.90;;;;;;5051466;28;20186;-66
2022/03/17 05:54:27;;;;;;;37.97;24.87;;;9.90;99.90;;;;;;5052403;28;20265;-66
2022/03/17 05:56:52;;;;;;;39.33;35.10;;;9.80;99.90;;;;;;5046128;28;20164;-66
2022/03/17 05:59:18;;;;;;;41.80;28.13;;;9.70;99.90;;;;;;5036059;28;20258;-66
2022/03/17 06:01:43;;;;;;;40.73;27.80;;;9.60;99.90;;;;;;5053184;28;20195;-66
2022/03/17 06:04:09;;;;;;;43.93;27.83;;;9.60;99.90;;;;;;5051422;28;20246;-66
2022/03/17 06:06:35;;;;;;;38.70;26.83;;;9.50;99.90;;;;;;5014743;28;20225;-66
2022/03/17 06:09:01;;;;;;;34.07;23.90;;;9.40;99.90;;;;;;5015274;28;20575;-65
2022/03/17 06:11:28;;;;;;;28.80;19.87;;;9.30;99.90;;;;;;5034285;28;20191;-65
2022/03/17 06:13:54;;;;;;;41.37;30.77;;;9.30;99.90;;;;;;5052634;28;20654;-65
2022/03/17 06:16:20;;;;;;;34.77;25.70;;;9.20;99.90;;;;;;5030827;28;20183;-66
2022/03/17 06:18:47;;;;;;;41.83;27.43;;;9.10;99.90;;;;;;5032732;28;20171;-66
2022/03/17 06:21:13;;;;;;;37.10;26.97;;;9.10;99.90;;;;;;5029314;28;20677;-66
2022/03/17 06:23:38;;;;;;;40.37;29.00;;;9.10;99.90;;;;;;5052460;28;20205;-65
2022/03/17 06:26:04;;;;;;;47.73;32.97;;;9.00;99.90;;;;;;5036805;28;20186;-66
2022/03/17 06:28:29;;;;;;;26.03;21.70;;;9.00;99.90;;;;;;5014622;28;20176;-66
2022/03/17 06:30:56;;;;;;;34.10;23.90;;;9.00;99.90;;;;;;5033258;28;20211;-66
2022/03/17 06:33:22;;;;;;;39.70;26.83;;;8.90;99.90;;;;;;5014776;28;20202;-65
2022/03/17 06:35:47;;;;;;;37.60;27.63;;;8.80;99.90;;;;;;5032547;28;20214;-66
2022/03/17 06:38:13;;;;;;;41.93;27.83;;;8.80;99.90;;;;;;5032683;28;20179;-68
2022/03/17 06:40:39;;;;;;;34.97;24.33;;;8.80;99.90;;;;;;5014479;28;20203;-65
2022/03/17 06:43:04;;;;;;;38.27;26.57;;;8.70;99.90;;;;;;5016425;28;20690;-66
2022/03/17 06:45:31;;;;;;;41.73;25.63;;;8.70;99.90;;;;;;5014186;28;20176;-65
2022/03/17 06:47:57;;;;;;;32.13;25.13;;;8.60;99.90;;;;;;5013399;28;20900;-66
2022/03/17 06:50:23;;;;;;;33.70;24.63;;;8.60;99.90;;;;;;5031712;28;20215;-65
2022/03/17 06:52:49;;;;;;;22.70;20.07;;;8.60;99.90;;;;;;5032384;28;20199;-65
2022/03/17 06:55:15;;;;;;;33.70;22.57;;;8.60;99.90;;;;;;5033128;28;20666;-66
2022/03/17 06:57:41;;;;;;;31.50;23.67;;;8.60;99.90;;;;;;5014292;28;20519;-66
2022/03/17 07:00:09;;;;;;;34.10;22.40;;;8.60;99.90;;;;;;5051760;28;20728;-66
2022/03/17 07:02:35;;;;;;;35.43;24.37;;;8.60;99.90;;;;;;5051996;28;20167;-66
2022/03/17 07:05:02;;;;;;;43.73;25.17;;;8.60;99.90;;;;;;5051516;28;20248;-66
2022/03/17 07:07:27;;;;;;;29.90;21.73;;;8.60;99.90;;;;;;5051524;28;20542;-66
2022/03/17 07:09:53;;;;;;;29.77;21.00;;;8.50;99.90;;;;;;5049829;28;20220;-66
2022/03/17 07:12:19;;;;;;;23.43;18.87;;;8.50;99.90;;;;;;5051174;28;20166;-66
2022/03/17 07:14:45;;;;;;;27.03;21.33;;;8.50;99.90;;;;;;5035074;28;20776;-66
2022/03/17 07:17:10;;;;;;;28.93;23.83;;;8.50;99.90;;;;;;5013497;28;20189;-66
2022/03/17 07:19:36;;;;;;;35.20;24.73;;;8.50;99.90;;;;;;5033015;28;20194;-66
2022/03/17 07:22:03;;;;;;;30.17;22.90;;;8.50;99.90;;;;;;5013526;28;20164;-66
2022/03/17 07:24:29;;;;;;;33.77;22.53;;;8.50;99.90;;;;;;5031008;28;20175;-66
2022/03/17 07:26:55;;;;;;;27.67;21.70;;;8.60;99.90;;;;;;5031367;28;20182;-66
2022/03/17 07:29:20;;;;;;;22.23;18.17;;;8.60;99.90;;;;;;5032241;28;20203;-66
2022/03/17 07:31:46;;;;;;;24.00;20.93;;;8.70;99.90;;;;;;5031264;28;20195;-66
2022/03/17 07:34:12;;;;;;;29.00;23.90;;;8.70;99.90;;;;;;5039891;28;20304;-66
2022/03/17 07:36:40;;;;;;;23.87;20.70;;;8.80;99.90;;;;;;5050165;28;20182;-66
2022/03/17 07:39:06;;;;;;;20.73;17.37;;;8.90;99.90;;;;;;5049403;28;20179;-67
2022/03/17 07:41:32;;;;;;;21.07;18.20;;;8.90;99.90;;;;;;5051084;28;20279;-66
2022/03/17 07:43:57;;;;;;;16.37;13.43;;;8.90;99.90;;;;;;5050335;28;20206;-66
2022/03/17 07:46:23;;;;;;;21.07;17.57;;;9.00;99.90;;;;;;5033090;28;20182;-66
2022/03/17 07:48:49;;;;;;;17.57;15.73;;;9.00;99.90;;;;;;5032608;28;20207;-66
2022/03/17 07:51:15;;;;;;;19.30;15.90;;;9.00;99.90;;;;;;5031498;28;20292;-66
2022/03/17 07:53:40;;;;;;;15.37;13.93;;;8.90;99.90;;;;;;5032191;28;20186;-66
2022/03/17 07:56:08;;;;;;;14.90;13.40;;;8.90;99.90;;;;;;5036964;28;20174;-66
2022/03/17 07:58:34;;;;;;;18.73;14.77;;;8.80;99.90;;;;;;5050824;28;20171;-67
2022/03/17 08:01:00;;;;;;;17.60;15.73;;;8.80;99.90;;;;;;5045541;28;20203;-66
2022/03/17 08:03:27;;;;;;;16.73;15.00;;;8.80;99.90;;;;;;5030689;28;20179;-66
2022/03/17 08:05:52;;;;;;;18.47;16.57;;;8.80;99.90;;;;;;5031715;28;20175;-66
2022/03/17 08:08:19;;;;;;;17.20;15.70;;;8.80;99.90;;;;;;5030637;28;20175;-66
2022/03/17 08:10:45;;;;;;;22.67;18.77;;;8.70;99.90;;;;;;5041086;28;20232;-66
2022/03/17 08:13:12;;;;;;;22.37;16.73;;;8.70;99.90;;;;;;5019611;28;20635;-66
2022/03/17 08:15:38;;;;;;;23.63;14.57;;;8.80;99.90;;;;;;5030619;28;20183;-66
2022/03/17 08:18:06;;;;;;;17.30;15.50;;;8.80;99.90;;;;;;5031196;28;20654;-66
2022/03/17 08:20:35;;;;;;;19.50;17.57;;;8.90;99.90;;;;;;5031542;28;20253;-66
2022/03/17 08:23:01;;;;;;;18.13;16.27;;;9.00;99.90;;;;;;5012365;28;20176;-66
2022/03/17 08:25:27;;;;;;;18.50;16.80;;;9.00;99.90;;;;;;5036593;28;20535;-66
2022/03/17 08:27:54;;;;;;;20.80;17.00;;;9.00;99.90;;;;;;5032845;28;20202;-66
2022/03/17 08:30:20;;;;;;;16.10;14.50;;;9.00;99.90;;;;;;5047861;28;20230;-66
2022/03/17 08:32:46;;;;;;;16.80;14.43;;;9.10;99.90;;;;;;5032495;28;20252;-66
2022/03/17 08:35:13;;;;;;;19.83;15.07;;;9.00;99.90;;;;;;5028048;28;20561;-66
2022/03/17 08:37:40;;;;;;;14.90;13.50;;;9.00;99.90;;;;;;5012727;28;20295;-66
2022/03/17 08:40:06;;;;;;;17.63;14.53;;;9.00;99.90;;;;;;5029935;28;20203;-66
2022/03/17 08:42:32;;;;;;;15.63;14.20;;;9.00;99.90;;;;;;5049949;28;20171;-66
2022/03/17 08:44:57;;;;;;;16.80;14.17;;;9.00;99.90;;;;;;5031684;28;20274;-66
2022/03/17 08:50:07;;;;;;;14.80;13.47;;;8.90;99.90;;;;;;5034948;28;20351;-66
2022/03/17 08:52:33;;;;;;;15.30;13.73;;;8.90;99.90;;;;;;5033895;28;20184;-65
2022/03/17 08:54:59;;;;;;;15.07;11.87;;;9.00;99.90;;;;;;5046728;28;20553;-68
2022/03/17 08:57:25;;;;;;;12.57;11.53;;;8.90;99.90;;;;;;5053862;28;20599;-65
2022/03/17 08:59:52;;;;;;;12.67;10.87;;;8.90;99.90;;;;;;5054113;28;20181;-66
2022/03/17 09:02:18;;;;;;;14.43;12.87;;;8.90;99.90;;;;;;5053727;28;20547;-66
2022/03/17 09:04:44;;;;;;;13.63;12.33;;;9.00;99.90;;;;;;5035879;28;20174;-66
2022/03/17 09:07:11;;;;;;;12.17;10.97;;;9.00;99.90;;;;;;5053983;28;20174;-66
2022/03/17 09:09:38;;;;;;;10.70;9.80;;;9.00;99.90;;;;;;5053628;28;20210;-66
2022/03/17 09:12:06;;;;;;;13.33;11.17;;;8.90;99.90;;;;;;5053078;28;20606;-66
2022/03/17 09:14:33;;;;;;;12.97;11.90;;;8.90;99.90;;;;;;5053363;28;20167;-66
2022/03/17 09:16:58;;;;;;;11.63;10.57;;;8.80;99.90;;;;;;5053589;28;20163;-66
2022/03/17 09:19:24;;;;;;;11.53;10.53;;;8.80;99.90;;;;;;5053163;28;20179;-66
2022/03/17 09:21:51;;;;;;;11.10;10.10;;;8.90;99.90;;;;;;5053648;28;20194;-66
2022/03/17 09:24:17;;;;;;;13.40;10.50;;;8.80;99.90;;;;;;5053335;28;20249;-66
2022/03/17 09:26:43;;;;;;;10.93;10.00;;;8.90;99.90;;;;;;5053295;28;20206;-66
2022/03/17 09:29:08;;;;;;;11.97;10.50;;;8.80;99.90;;;;;;5049517;28;20292;-66
2022/03/17 09:31:35;;;;;;;10.97;9.67;;;8.80;99.90;;;;;;5031650;28;20314;-66
2022/03/17 09:34:01;;;;;;;10.40;9.30;;;8.80;99.90;;;;;;5041253;28;20563;-66
2022/03/17 09:36:27;;;;;;;10.97;9.83;;;8.90;99.90;;;;;;5052521;28;20167;-66
2022/03/17 09:41:36;;;;;;;10.93;8.57;;;9.00;99.90;;;;;;5032439;28;20252;-65
2022/03/17 09:44:03;;;;;;;10.63;9.10;;;9.00;99.90;;;;;;5033310;28;20756;-66
2022/03/17 09:46:31;;;;;;;10.27;8.93;;;9.10;99.90;;;;;;5032234;28;20246;-66
2022/03/17 09:48:57;;;;;;;11.03;10.10;;;9.20;99.90;;;;;;5038631;28;20177;-65
2022/03/17 09:51:24;;;;;;;10.80;9.63;;;9.30;99.90;;;;;;5053380;28;20202;-66
2022/03/17 09:53:53;;;;;;;10.50;9.50;;;9.40;99.90;;;;;;5030713;28;20174;-66
2022/03/17 09:56:25;;;;;;;10.87;9.97;;;9.50;99.90;;;;;;5033057;28;20262;-65
2022/03/17 09:58:56;;;;;;;12.17;10.87;;;9.60;99.90;;;;;;5037421;28;20171;-65
2022/03/17 10:01:23;;;;;;;11.17;10.17;;;9.70;99.90;;;;;;5051299;28;20623;-65
2022/03/17 10:03:49;;;;;;;12.40;11.30;;;9.80;99.90;;;;;;5033289;28;20221;-65
2022/03/17 10:06:18;;;;;;;11.37;10.43;;;9.90;99.90;;;;;;5032527;28;20179;-64
2022/03/17 10:08:45;;;;;;;11.10;9.87;;;9.80;99.90;;;;;;5032501;28;20744;-65
2022/03/17 10:11:18;;;;;;;11.03;10.03;;;9.70;99.90;;;;;;5032579;28;20579;-65
2022/03/17 10:13:46;;;;;;;10.23;9.40;;;9.60;99.90;;;;;;5030960;28;20530;-65
2022/03/17 10:16:17;;;;;;;10.00;9.30;;;9.70;99.90;;;;;;5032181;28;20175;-65
2022/03/17 10:18:45;;;;;;;9.20;8.30;;;9.80;99.90;;;;;;5015687;28;20202;-68
2022/03/17 10:21:17;;;;;;;8.80;8.10;;;9.80;99.90;;;;;;5034422;28;20203;-65
2022/03/17 10:23:49;;;;;;;8.70;7.90;;;10.00;99.90;;;;;;5033310;28;20184;-65
2022/03/17 10:26:33;;;;;;;8.00;7.23;;;10.00;99.90;;;;;;5033243;28;20171;-66
2022/03/17 10:29:15;;;;;;;8.43;7.73;;;9.90;99.90;;;;;;5014844;28;20179;-66
2022/03/17 10:31:54;;;;;;;8.33;7.63;;;9.90;99.90;;;;;;5014093;28;20218;-66
2022/03/17 10:34:22;;;;;;;8.63;7.93;;;10.00;99.90;;;;;;5034539;28;20175;-66
2022/03/17 10:36:48;;;;;;;8.20;7.60;;;10.00;99.90;;;;;;5050044;28;20188;-66
2022/03/17 10:39:14;;;;;;;7.27;6.77;;;10.10;99.90;;;;;;5049993;28;20579;-66
2022/03/17 10:41:47;;;;;;;10.40;6.93;;;10.00;99.90;;;;;;5052074;28;20197;-65
2022/03/17 10:44:18;;;;;;;8.33;7.83;;;10.00;99.90;;;;;;5031097;28;20594;-68
2022/03/17 10:47:02;;;;;;;7.00;6.50;;;9.90;99.90;;;;;;5014065;28;20211;-65
2022/03/17 10:49:30;;;;;;;7.70;7.10;;;9.80;99.90;;;;;;5032947;28;20199;-65
2022/03/17 10:51:57;;;;;;;7.77;7.17;;;9.70;99.90;;;;;;5031866;28;20215;-67
2022/03/17 10:54:23;;;;;;;7.93;7.33;;;9.70;99.90;;;;;;5034627;28;20266;-67
2022/03/17 10:57:08;;;;;;;7.50;6.90;;;9.80;99.90;;;;;;5051802;28;20233;-67
2022/03/17 10:59:43;;;;;;;7.90;7.20;;;10.00;99.90;;;;;;5035532;28;20214;-68
2022/03/17 11:02:10;;;;;;;7.20;6.50;;;10.30;99.90;;;;;;5031346;28;20542;-67
2022/03/17 11:04:38;;;;;;;7.00;6.40;;;10.50;99.90;;;;;;5032592;28;20656;-67
2022/03/17 11:07:13;;;;;;;6.83;6.20;;;10.60;99.90;;;;;;5031775;28;20616;-67
2022/03/17 11:09:42;;;;;;;6.87;6.13;;;10.80;99.90;;;;;;5046724;28;20696;-64
2022/03/17 11:12:08;;;;;;;8.97;6.43;;;10.90;99.90;;;;;;5050764;28;20254;-66
2022/03/17 11:14:46;;;;;;;7.50;6.80;;;11.20;99.90;;;;;;5049330;28;20265;-65
2022/03/17 11:17:16;;;;;;;6.80;6.20;;;11.20;99.90;;;;;;5050351;28;20163;-65
2022/03/17 11:19:43;;;;;;;6.43;6.00;;;11.40;99.90;;;;;;5029689;28;20187;-65
2022/03/17 11:22:20;;;;;;;6.47;6.00;;;11.40;99.90;;;;;;5031300;28;20210;-66
2022/03/17 11:24:46;;;;;;;8.07;7.13;;;11.40;99.90;;;;;;5044982;28;20186;-65
2022/03/17 11:27:14;;;;;;;8.13;6.70;;;11.50;99.90;;;;;;5050449;28;20175;-65
2022/03/17 11:29:44;;;;;;;6.87;6.30;;;11.70;99.90;;;;;;5029523;28;20670;-65
2022/03/17 11:32:31;;;;;;;6.63;6.23;;;11.80;99.90;;;;;;5031564;28;20662;-66
2022/03/17 11:35:09;;;;;;;8.23;5.83;;;11.80;99.90;;;;;;5032329;28;20554;-67
2022/03/17 11:37:35;;;;;;;6.80;6.20;;;11.60;99.90;;;;;;5030522;28;20638;-66
2022/03/17 11:40:03;;;;;;;6.30;5.80;;;11.50;99.90;;;;;;5044943;28;20230;-65
2022/03/17 11:42:37;;;;;;;6.83;6.33;;;11.40;99.90;;;;;;5050113;28;20198;-65
2022/03/17 11:45:15;;;;;;;7.47;6.60;;;11.20;99.90;;;;;;5048893;28;20183;-65
2022/03/17 11:47:45;;;;;;;6.90;6.30;;;11.00;99.90;;;;;;5032754;28;20182;-65
2022/03/17 11:50:36;;;;;;;7.87;7.07;;;10.80;99.90;;;;;;5028556;28;20214;-66
2022/03/17 11:53:14;;;;;;;8.23;6.50;;;10.80;99.90;;;;;;5040589;28;20240;-65
2022/03/17 11:55:45;;;;;;;7.37;6.73;;;10.90;99.90;;;;;;5017115;28;20183;-65
2022/03/17 11:58:31;;;;;;;7.67;6.97;;;10.90;99.90;;;;;;5013589;28;20591;-65
2022/03/17 12:01:22;;;;;;;8.10;6.47;;;10.70;99.90;;;;;;5031412;28;20200;-65
2022/03/17 12:03:54;;;;;;;8.63;7.73;;;10.80;99.90;;;;;;5013495;28;20176;-66
2022/03/17 12:06:22;;;;;;;8.07;7.20;;;11.00;99.90;;;;;;5031743;28;20183;-65
2022/03/17 12:09:04;;;;;;;7.00;6.40;;;11.10;99.90;;;;;;5012950;28;20254;-66
2022/03/17 12:11:38;;;;;;;8.00;6.97;;;11.30;99.90;;;;;;5029395;28;20218;-66
2022/03/17 12:14:24;;;;;;;9.57;6.70;;;11.60;99.90;;;;;;5050984;28;20588;-66
2022/03/17 12:16:52;;;;;;;9.40;7.27;;;11.90;99.90;;;;;;5048962;28;20639;-65
2022/03/17 12:19:48;;;;;;;9.30;6.53;;;12.10;99.90;;;;;;5050208;28;20193;-65
2022/03/17 12:22:32;;;;;;;7.83;5.60;;;12.10;99.90;;;;;;5031404;28;20726;-66
2022/03/17 12:25:11;;;;;;;8.53;6.20;;;12.10;99.90;;;;;;5035656;28;20186;-66
2022/03/17 12:27:38;;;;;;;6.97;6.27;;;12.00;99.90;;;;;;5016830;28;20630;-66
2022/03/17 12:30:16;;;;;;;7.20;6.50;;;12.10;99.90;;;;;;5037279;28;20261;-66
2022/03/17 12:33:01;;;;;;;10.50;6.70;;;12.30;99.90;;;;;;5054601;28;20229;-65
2022/03/17 12:35:32;;;;;;;7.20;6.50;;;12.50;99.90;;;;;;5051923;28;20202;-66
2022/03/17 12:38:00;;;;;;;7.13;6.50;;;12.30;99.90;;;;;;5038380;28;20258;-65
2022/03/17 12:40:25;;;;;;;10.10;6.83;;;12.10;99.90;;;;;;5016634;28;20206;-66
2022/03/17 12:42:53;;;;;;;9.63;6.60;;;12.20;99.90;;;;;;5032948;28;20547;-66
2022/03/17 12:45:21;;;;;;;8.07;6.87;;;12.20;99.90;;;;;;5035294;28;20224;-65
2022/03/17 12:47:56;;;;;;;7.47;6.87;;;12.10;99.90;;;;;;5034529;28;20571;-66
2022/03/17 12:50:22;;;;;;;8.27;6.77;;;12.30;99.90;;;;;;5036658;28;20205;-66
2022/03/17 12:52:49;;;;;;;6.87;6.40;;;12.30;99.90;;;;;;5036047;28;20181;-66
2022/03/17 12:55:18;;;;;;;8.63;6.60;;;12.30;99.90;;;;;;5051962;28;20239;-65